Alpine Village, CA

5:01 PM PDT on October 21, 2014 (GMT -0700)
Country Club Heights | Change Station
CLOSE
Current Station
Personal Weather Station
Location: South Lake Tahoe, CA
Elevation: 6500 ft
Nearby Weather Stations

Elev 6500 ft 38.86 °N, 120.01 °W | Updated 1 second ago

Partly Cloudy
Partly Cloudy
51.3 °F
Feels Like 51.3 °F
N
4.0
Wind Variable Wind from South
Gusts 4.0 mph

Today
High -- | Low -- °F
--% Chance of Precip.
Yesterday
High -- | Low -- °F
Precip. -- in
7:14 AM 6:12 PM
Waning Crescent, 4% visible
Pressure 30.00 in
Visibility 10.0 miles
Clouds Clear
Dew Point 39 °F
Humidity 62%
Rainfall 0.00 in
Snow Depth 0 in
UV 0.0 out of 12
Pollen 1.90 out of 12
Air Quality Not available.
Flu Activity Sporadic
METAR KTVL 212353Z AUTO VRB05KT 10SM CLR 13/02 A3008 RMK AO2 SLP157 T01280017 10156 20111 56000

More Conditions Fewer Conditions

Pressure 30.00 in
Visibility 10.0 miles
Clouds Clear
Dew Point 39 °F
Humidity 62%
Rainfall 0.00 in
Snow Depth 0 in
UV 0.0 out of 12
Pollen 1.90 out of 12
Air Quality Not available.
Flu Activity Sporadic
METAR KTVL 212353Z AUTO VRB05KT 10SM CLR 13/02 A3008 RMK AO2 SLP157 T01280017 10156 20111 56000

More Conditions Fewer Conditions

10-Day Weather Forecast

Almanac

Astronomy

Oct. 21, 2014 Rise Set
Actual Time 7:14 AM PDT 6:12 PM PDT
Civil Twilight 6:47 AM PDT 6:39 PM PDT
Nautical Twilight 6:16 AM PDT 7:10 PM PDT
Astronomical Twilight 5:45 AM PDT 7:41 PM PDT
Moon 5:05 AM PDT (10/21) 5:08 PM PDT (10/21)
Length of Visible Light 11h 51m
Length of Day
10h 57m
Tomorrow will be 2m 21s shorter.
Waning Crescent, 4% of the Moon is Illuminated
Today
Waning Crescent
Oct 23
New
Oct 30
First Quarter
Nov 6
Full
Nov 14
Last Quarter

Today's Extremes

State Highs State Lows

Community

WunderPhotos

Upload Photos

1,763,824 photos uploaded!

Nearby

Snow Depth

Station Depth Elevation
Echo Peak 0 in 7800 ft
Leavitt Meadows 0 in 7200 ft
Ward Creek #3 1 in 6750 ft
Adin Mountain 1 in 6200 ft

Earthquake Activity

City Distance Mag. Time & Date
Mammoth Lakes, California 104 miles 3.0 11:10 PM PDT
2014-10-20
Dixon Lane-Meadow Creek, California 110 miles 2.6 5:32 PM PDT
2014-10-18
Smith Valley, Nevada 20 miles 2.9 10:59 AM PDT
2014-10-18
East Foothills, California 140 miles 2.6 8:16 AM PDT
2014-10-18
Minimum magnitude displayed is 2.5.

Coastal Water Temperatures

Place Temperature
No Stations Reporting

Nearby Weather Stations